createdAt,value
2022-11-14T00:01:21.535Z,9.10
2022-11-14T00:03:51.610Z,9.00
2022-11-14T00:06:19.556Z,9.00
2022-11-14T00:08:47.803Z,9.00
2022-11-14T00:11:15.907Z,9.00
2022-11-14T00:13:45.219Z,9.00
2022-11-14T00:16:13.171Z,9.00
2022-11-14T00:18:41.255Z,9.00
2022-11-14T00:21:09.216Z,9.00
2022-11-14T00:23:37.479Z,9.00
2022-11-14T00:26:05.607Z,8.90
2022-11-14T00:28:33.815Z,8.90
2022-11-14T00:31:03.185Z,8.90
2022-11-14T00:33:31.187Z,8.90
2022-11-14T00:35:59.279Z,8.80
2022-11-14T00:38:27.521Z,8.80
2022-11-14T00:40:55.805Z,8.80
2022-11-14T00:43:23.776Z,8.70
2022-11-14T00:45:51.683Z,8.70
2022-11-14T00:48:21.041Z,8.70
2022-11-14T00:50:49.305Z,8.60
2022-11-14T00:53:17.392Z,8.70
2022-11-14T00:55:45.919Z,8.60
2022-11-14T00:58:13.864Z,8.70
2022-11-14T01:00:41.912Z,8.70
2022-11-14T01:03:10.620Z,8.70
2022-11-14T01:05:43.425Z,8.70
2022-11-14T01:08:11.925Z,8.60
2022-11-14T01:10:41.741Z,8.60
2022-11-14T01:13:09.996Z,8.60
2022-11-14T01:15:41.303Z,8.60
2022-11-14T01:18:09.710Z,8.60
2022-11-14T01:20:40.248Z,8.70
2022-11-14T01:23:10.664Z,8.60
2022-11-14T01:25:39.552Z,8.60
2022-11-14T01:28:08.642Z,8.60
2022-11-14T01:30:37.244Z,8.60
2022-11-14T01:33:06.543Z,8.60
2022-11-14T01:35:35.539Z,8.60
2022-11-14T01:38:04.523Z,8.60
2022-11-14T01:40:34.490Z,8.60
2022-11-14T01:43:28.360Z,8.60
2022-11-14T01:45:59.051Z,8.60
2022-11-14T01:48:32.750Z,8.50
2022-11-14T01:51:05.163Z,8.60
2022-11-14T01:53:33.643Z,8.50
2022-11-14T01:56:06.834Z,8.40
2022-11-14T01:58:38.160Z,8.40
2022-11-14T02:01:06.382Z,8.40
2022-11-14T02:03:37.066Z,8.40
2022-11-14T02:06:07.820Z,8.40
2022-11-14T02:08:36.388Z,8.40
2022-11-14T02:11:06.106Z,8.40
2022-11-14T02:13:34.363Z,8.30
2022-11-14T02:16:02.455Z,8.30
2022-11-14T02:18:30.781Z,8.30
2022-11-14T02:21:00.957Z,8.40
2022-11-14T02:23:31.093Z,8.40
2022-11-14T02:25:59.776Z,8.40
2022-11-14T02:28:28.751Z,8.40
2022-11-14T02:30:57.351Z,8.30
2022-11-14T02:33:25.432Z,8.30
2022-11-14T02:35:53.554Z,8.30
2022-11-14T02:38:22.845Z,8.20
2022-11-14T02:40:50.829Z,8.30
2022-11-14T02:43:18.858Z,8.30
2022-11-14T02:45:46.886Z,8.30
2022-11-14T02:48:15.074Z,8.10
2022-11-14T02:50:43.150Z,8.10
2022-11-14T02:53:11.439Z,8.00
2022-11-14T02:55:40.799Z,8.00
2022-11-14T02:58:08.979Z,7.90
2022-11-14T03:00:53.330Z,8.00
2022-11-14T03:03:25.074Z,8.00
2022-11-14T03:05:53.467Z,7.90
2022-11-14T03:08:21.503Z,7.90
2022-11-14T03:10:51.332Z,7.90
2022-11-14T03:13:19.398Z,7.90
2022-11-14T03:15:47.509Z,7.90
2022-11-14T03:18:15.868Z,7.90
2022-11-14T03:20:43.874Z,7.90
2022-11-14T03:23:12.188Z,8.00
2022-11-14T03:25:40.349Z,8.00
2022-11-14T03:28:09.744Z,7.90
2022-11-14T03:30:38.018Z,7.90
2022-11-14T03:33:06.101Z,7.90
2022-11-14T03:35:34.068Z,7.90
2022-11-14T03:38:02.071Z,8.00
2022-11-14T03:40:30.902Z,8.00
2022-11-14T03:42:59.013Z,8.10
2022-11-14T03:45:28.580Z,8.00
2022-11-14T03:47:56.680Z,8.10
2022-11-14T03:50:24.904Z,8.00
2022-11-14T03:52:52.934Z,8.00
2022-11-14T03:55:21.365Z,8.10
2022-11-14T03:57:49.367Z,8.00
2022-11-14T04:00:18.145Z,8.00
2022-11-14T04:02:47.707Z,8.10
2022-11-14T04:05:15.834Z,8.10
2022-11-14T04:07:43.867Z,8.00
2022-11-14T04:10:11.924Z,8.00
2022-11-14T04:12:39.975Z,7.90
2022-11-14T04:15:09.038Z,8.00
2022-11-14T04:17:39.951Z,8.00
2022-11-14T04:20:10.833Z,8.00
2022-11-14T04:22:38.954Z,8.00
2022-11-14T04:25:08.655Z,8.00
2022-11-14T04:27:36.957Z,8.00
2022-11-14T04:30:06.220Z,8.00
2022-11-14T04:32:34.206Z,8.00
2022-11-14T04:35:02.183Z,8.00
2022-11-14T04:37:31.636Z,7.90
2022-11-14T04:40:02.369Z,7.90
2022-11-14T04:42:30.444Z,7.90
2022-11-14T04:44:58.535Z,8.00
2022-11-14T04:47:26.835Z,7.90
2022-11-14T04:49:54.862Z,7.90
2022-11-14T04:52:22.994Z,7.90
2022-11-14T04:54:52.322Z,7.90
2022-11-14T04:57:20.260Z,7.90
2022-11-14T04:59:48.436Z,7.90
2022-11-14T05:02:16.527Z,7.90
2022-11-14T05:04:45.718Z,7.90
2022-11-14T05:07:14.212Z,8.00
2022-11-14T05:09:42.225Z,7.90
2022-11-14T05:12:11.541Z,7.90
2022-11-14T05:14:39.634Z,7.90
2022-11-14T05:17:07.616Z,8.00
2022-11-14T05:19:35.612Z,8.00
2022-11-14T05:22:04.049Z,7.90
2022-11-14T05:24:32.188Z,7.80
2022-11-14T05:27:00.441Z,7.80
2022-11-14T05:29:29.946Z,7.90
2022-11-14T05:31:58.090Z,7.80
2022-11-14T05:34:26.235Z,7.90
2022-11-14T05:36:54.561Z,7.80
2022-11-14T05:39:22.575Z,7.80
2022-11-14T05:41:50.493Z,7.70
2022-11-14T05:44:18.496Z,7.70
2022-11-14T05:46:48.144Z,7.60
2022-11-14T05:49:20.721Z,7.60
2022-11-14T05:51:49.936Z,7.60
2022-11-14T05:54:17.947Z,7.50
2022-11-14T05:56:45.947Z,7.60
2022-11-14T05:59:14.037Z,7.60
2022-11-14T06:01:42.090Z,7.60
2022-11-14T06:04:13.056Z,7.60
2022-11-14T06:06:41.133Z,7.60
2022-11-14T06:09:09.328Z,7.60
2022-11-14T06:11:37.255Z,7.60
2022-11-14T06:14:10.506Z,7.70
2022-11-14T06:16:39.316Z,7.70
2022-11-14T06:19:07.685Z,7.60
2022-11-14T06:21:37.106Z,7.50
2022-11-14T06:24:05.695Z,7.50
2022-11-14T06:26:34.437Z,7.50
2022-11-14T06:29:02.449Z,7.60
2022-11-14T06:31:30.808Z,7.50
2022-11-14T06:34:00.769Z,7.40
2022-11-14T06:36:30.418Z,7.40
2022-11-14T06:38:59.766Z,7.40
2022-11-14T06:41:27.857Z,7.40
2022-11-14T06:43:55.946Z,7.40
2022-11-14T06:46:24.616Z,7.50
2022-11-14T06:48:53.064Z,7.40
2022-11-14T06:51:21.051Z,7.50
2022-11-14T06:53:49.036Z,7.50
2022-11-14T06:56:20.286Z,7.50
2022-11-14T06:58:49.799Z,7.50
2022-11-14T07:01:19.509Z,7.50
2022-11-14T07:03:48.128Z,7.50
2022-11-14T07:06:19.136Z,7.50
2022-11-14T07:08:47.558Z,7.50
2022-11-14T07:11:22.925Z,7.50
2022-11-14T07:13:53.504Z,7.50
2022-11-14T07:16:24.575Z,7.50
2022-11-14T07:18:52.528Z,7.50
2022-11-14T07:21:20.806Z,7.50
2022-11-14T07:23:49.057Z,7.50
2022-11-14T07:26:17.044Z,7.60
2022-11-14T07:28:51.822Z,7.60
2022-11-14T07:31:22.895Z,7.60
2022-11-14T07:33:50.982Z,7.60
2022-11-14T07:36:19.295Z,7.60
2022-11-14T07:38:47.689Z,7.50
2022-11-14T07:41:17.231Z,7.50
2022-11-14T07:43:45.444Z,7.50
2022-11-14T07:46:14.814Z,7.40
2022-11-14T07:48:44.156Z,7.40
2022-11-14T07:51:16.421Z,7.50
2022-11-14T07:53:44.718Z,7.50
2022-11-14T07:56:13.045Z,7.50
2022-11-14T07:58:42.433Z,7.50
2022-11-14T08:01:13.315Z,7.50
2022-11-14T08:03:46.082Z,7.60
2022-11-14T08:06:15.697Z,7.60
2022-11-14T08:08:43.832Z,7.60
2022-11-14T08:11:12.415Z,7.60
2022-11-14T08:13:40.383Z,7.70
2022-11-14T08:16:13.378Z,7.70
2022-11-14T08:18:43.578Z,7.60
2022-11-14T08:21:11.867Z,7.70
2022-11-14T08:23:39.899Z,7.70
2022-11-14T08:26:08.016Z,7.60
2022-11-14T08:28:36.001Z,7.60
2022-11-14T08:31:05.123Z,7.60
2022-11-14T08:33:33.239Z,7.60
2022-11-14T08:36:03.649Z,7.60
2022-11-14T08:38:33.618Z,7.60
2022-11-14T08:41:02.227Z,7.60
2022-11-14T08:43:30.797Z,7.50
2022-11-14T08:46:01.910Z,7.60
2022-11-14T08:48:30.904Z,7.60
2022-11-14T08:50:59.646Z,7.50
2022-11-14T08:53:29.282Z,7.50
2022-11-14T08:55:57.268Z,7.60
2022-11-14T08:58:25.233Z,7.60
2022-11-14T09:00:53.576Z,7.70
2022-11-14T09:03:21.768Z,7.80
2022-11-14T09:05:53.202Z,7.80
2022-11-14T09:08:21.948Z,7.80
2022-11-14T09:10:51.498Z,7.70
2022-11-14T09:13:19.669Z,7.80
2022-11-14T09:15:47.775Z,7.80
2022-11-14T09:18:16.407Z,7.80
2022-11-14T09:20:44.358Z,7.90
2022-11-14T09:23:12.733Z,7.90
2022-11-14T09:25:40.730Z,8.00
2022-11-14T09:28:11.028Z,8.00
2022-11-14T09:30:40.242Z,8.10
2022-11-14T09:33:11.637Z,8.10
2022-11-14T09:35:40.322Z,8.10
2022-11-14T09:38:10.475Z,8.00
2022-11-14T09:40:53.458Z,8.00
2022-11-14T09:43:43.219Z,8.10
2022-11-14T09:46:20.251Z,8.20
2022-11-14T09:48:48.607Z,8.30
2022-11-14T09:51:20.691Z,8.30
2022-11-14T09:53:54.568Z,8.30
2022-11-14T09:56:26.357Z,8.30
2022-11-14T09:58:57.527Z,8.30
2022-11-14T10:01:37.534Z,8.30
2022-11-14T10:04:15.539Z,8.30
2022-11-14T10:06:52.631Z,8.30
2022-11-14T10:09:42.734Z,8.40
2022-11-14T10:12:16.427Z,8.50
2022-11-14T10:15:11.821Z,8.50
2022-11-14T10:18:04.067Z,8.30
2022-11-14T10:20:38.195Z,8.30
2022-11-14T10:23:24.073Z,8.30
2022-11-14T10:25:57.299Z,8.40
2022-11-14T10:28:43.112Z,8.40
2022-11-14T10:31:24.327Z,8.50
2022-11-14T10:34:00.685Z,8.50
2022-11-14T10:36:50.771Z,8.70
2022-11-14T10:39:23.210Z,8.80
2022-11-14T10:42:01.028Z,8.80
2022-11-14T10:44:37.254Z,8.80
2022-11-14T10:47:13.978Z,8.70
2022-11-14T10:49:42.962Z,8.70
2022-11-14T10:52:15.742Z,8.70
2022-11-14T10:54:48.658Z,8.80
2022-11-14T10:57:18.875Z,8.70
2022-11-14T10:59:47.281Z,8.60
2022-11-14T11:02:18.281Z,8.60
2022-11-14T11:04:47.066Z,8.60
2022-11-14T11:07:40.257Z,8.60
2022-11-14T11:10:37.543Z,8.60
2022-11-14T11:13:06.123Z,8.60
2022-11-14T11:15:41.253Z,8.70
2022-11-14T11:18:27.893Z,8.60
2022-11-14T11:21:11.098Z,8.70
2022-11-14T11:23:49.942Z,8.80
2022-11-14T11:26:20.889Z,8.90
2022-11-14T11:29:04.340Z,8.90
2022-11-14T11:31:51.489Z,8.90
2022-11-14T11:34:26.955Z,9.00
2022-11-14T11:36:59.615Z,8.80
2022-11-14T11:39:31.228Z,8.90
2022-11-14T11:42:10.891Z,8.90
2022-11-14T11:44:44.827Z,8.90
2022-11-14T11:47:16.520Z,9.00
2022-11-14T11:49:53.298Z,9.00
2022-11-14T11:52:32.096Z,9.10
2022-11-14T11:55:05.077Z,9.10
2022-11-14T11:57:37.820Z,9.30
2022-11-14T12:00:09.384Z,9.50
2022-11-14T12:02:49.328Z,9.60
2022-11-14T12:05:26.878Z,9.70
2022-11-14T12:08:04.264Z,9.60
2022-11-14T12:10:37.397Z,9.60
2022-11-14T12:13:33.581Z,9.70
2022-11-14T12:16:23.639Z,9.60
2022-11-14T12:19:26.018Z,9.60
2022-11-14T12:22:12.388Z,9.60
2022-11-14T12:25:00.187Z,9.70
2022-11-14T12:27:43.381Z,9.90
2022-11-14T12:30:16.856Z,10.10
2022-11-14T12:32:49.340Z,10.10
2022-11-14T12:35:21.437Z,10.00
2022-11-14T12:37:55.844Z,9.90
2022-11-14T12:40:28.822Z,9.90
2022-11-14T12:42:58.298Z,9.90
2022-11-14T12:45:58.425Z,9.80
2022-11-14T12:48:33.173Z,9.70
2022-11-14T12:51:02.102Z,9.60
2022-11-14T12:53:47.099Z,9.50
2022-11-14T12:56:52.708Z,9.40
2022-11-14T12:59:38.920Z,9.50
2022-11-14T13:02:45.748Z,9.40
2022-11-14T13:05:49.284Z,9.50
2022-11-14T13:08:34.971Z,9.70
2022-11-14T13:11:55.055Z,9.50
2022-11-14T13:14:40.742Z,9.50
2022-11-14T13:17:41.861Z,9.60
2022-11-14T13:20:49.732Z,9.60
2022-11-14T13:23:51.650Z,9.60
2022-11-14T13:26:55.145Z,9.60
2022-11-14T13:30:00.225Z,9.70
2022-11-14T13:32:58.249Z,9.70
2022-11-14T13:35:46.883Z,9.60
2022-11-14T13:38:45.569Z,9.50
2022-11-14T13:41:47.587Z,9.60
2022-11-14T13:45:01.418Z,9.60
2022-11-14T13:48:12.275Z,9.50
2022-11-14T13:50:43.012Z,9.50
2022-11-14T13:53:17.049Z,9.40
2022-11-14T13:55:57.240Z,9.40
2022-11-14T13:58:42.864Z,9.50
2022-11-14T14:01:23.384Z,9.40
2022-11-14T14:04:07.488Z,9.50
2022-11-14T14:06:46.060Z,9.60
2022-11-14T14:09:23.125Z,9.60
2022-11-14T14:12:21.985Z,9.70
2022-11-14T14:15:10.075Z,9.70
2022-11-14T14:17:50.629Z,9.60
2022-11-14T14:20:32.666Z,9.70
2022-11-14T14:23:09.967Z,9.70
2022-11-14T14:25:46.674Z,9.60
2022-11-14T14:28:21.714Z,9.60
2022-11-14T14:31:10.796Z,9.60
2022-11-14T14:33:44.840Z,9.60
2022-11-14T14:36:21.769Z,9.60
2022-11-14T14:38:50.761Z,9.50
2022-11-14T14:41:20.994Z,9.50
2022-11-14T14:43:56.087Z,9.60
2022-11-14T14:46:30.217Z,9.50
2022-11-14T14:49:03.683Z,9.50
2022-11-14T14:51:33.280Z,9.40
2022-11-14T14:54:01.417Z,9.30
2022-11-14T14:56:29.831Z,9.20
2022-11-14T14:58:58.228Z,9.10
2022-11-14T15:01:32.872Z,9.00
2022-11-14T15:04:06.013Z,9.00
2022-11-14T15:06:36.376Z,9.00
2022-11-14T15:09:11.176Z,9.00
2022-11-14T15:11:43.654Z,9.10
2022-11-14T15:14:15.085Z,9.00
2022-11-14T15:16:43.944Z,8.90
2022-11-14T15:19:16.083Z,8.90
2022-11-14T15:21:44.352Z,8.90
2022-11-14T15:24:16.617Z,8.80
2022-11-14T15:26:46.004Z,8.80
2022-11-14T15:29:19.583Z,8.70
2022-11-14T15:31:49.840Z,8.60
2022-11-14T15:34:28.824Z,8.60
2022-11-14T15:37:23.438Z,8.60
2022-11-14T15:39:51.466Z,8.60
2022-11-14T15:42:29.374Z,8.50
2022-11-14T15:44:57.413Z,8.50
2022-11-14T15:47:26.763Z,8.40
2022-11-14T15:50:00.481Z,8.50
2022-11-14T15:52:36.136Z,8.40
2022-11-14T15:55:10.503Z,8.30
2022-11-14T15:57:39.173Z,8.30
2022-11-14T16:00:08.324Z,8.30
2022-11-14T16:02:46.200Z,8.30
2022-11-14T16:05:16.865Z,8.30
2022-11-14T16:07:45.020Z,8.20
2022-11-14T16:10:15.915Z,8.10
2022-11-14T16:12:47.969Z,8.10
2022-11-14T16:15:20.481Z,8.10
2022-11-14T16:17:50.131Z,8.10
2022-11-14T16:20:21.710Z,8.10
2022-11-14T16:22:50.787Z,8.10
2022-11-14T16:25:20.973Z,8.10
2022-11-14T16:27:49.045Z,8.00
2022-11-14T16:30:19.324Z,8.00
2022-11-14T16:32:49.305Z,8.00
2022-11-14T16:35:20.366Z,8.00
2022-11-14T16:37:48.937Z,8.00
2022-11-14T16:40:19.389Z,8.00
2022-11-14T16:42:48.024Z,7.90
2022-11-14T16:45:16.334Z,7.80
2022-11-14T16:47:44.748Z,7.80
2022-11-14T16:50:12.712Z,7.80
2022-11-14T16:52:42.043Z,7.80
2022-11-14T16:55:11.500Z,7.80
2022-11-14T16:57:39.965Z,7.90
2022-11-14T17:00:10.588Z,7.90
2022-11-14T17:02:39.301Z,7.80
2022-11-14T17:05:09.292Z,7.70
2022-11-14T17:07:37.660Z,7.70
2022-11-14T17:10:08.386Z,7.70
2022-11-14T17:12:36.466Z,7.70
2022-11-14T17:15:04.973Z,7.70
2022-11-14T17:17:33.143Z,7.60
2022-11-14T17:20:01.133Z,7.70
2022-11-14T17:22:29.642Z,7.70
2022-11-14T17:24:57.736Z,7.70
2022-11-14T17:27:27.083Z,7.60
2022-11-14T17:29:55.040Z,7.60
2022-11-14T17:32:23.379Z,7.60
2022-11-14T17:34:51.426Z,7.60
2022-11-14T17:37:19.438Z,7.60
2022-11-14T17:39:47.575Z,7.50
2022-11-14T17:42:15.968Z,7.50
2022-11-14T17:44:45.304Z,7.50
2022-11-14T17:47:13.496Z,7.60
2022-11-14T17:49:41.456Z,7.50
2022-11-14T17:52:09.489Z,7.50
2022-11-14T17:54:38.880Z,7.60
2022-11-14T17:57:07.702Z,7.50
2022-11-14T17:59:36.470Z,7.50
2022-11-14T18:02:06.163Z,7.40
2022-11-14T18:04:34.179Z,7.40
2022-11-14T18:07:02.279Z,7.40
2022-11-14T18:09:30.515Z,7.30
2022-11-14T18:11:58.587Z,7.30
2022-11-14T18:14:26.630Z,7.30
2022-11-14T18:19:44.115Z,7.30
2022-11-14T18:22:13.079Z,7.40
2022-11-14T18:24:46.708Z,7.30
2022-11-14T18:27:15.048Z,7.30
2022-11-14T18:29:43.451Z,7.30
2022-11-14T18:32:11.482Z,7.20
2022-11-14T18:34:40.865Z,7.20
2022-11-14T18:37:10.226Z,7.10
2022-11-14T18:39:38.314Z,7.20
2022-11-14T18:42:06.855Z,7.20
2022-11-14T18:45:01.451Z,7.20
2022-11-14T18:47:31.721Z,7.20
2022-11-14T18:50:04.919Z,7.10
2022-11-14T18:55:56.930Z,7.10
2022-11-14T18:58:31.414Z,7.20
2022-11-14T19:01:00.922Z,7.20
2022-11-14T19:03:42.544Z,7.20
2022-11-14T19:06:16.472Z,7.20
2022-11-14T19:08:47.235Z,7.20
2022-11-14T19:11:39.106Z,7.20
2022-11-14T19:14:24.347Z,7.20
2022-11-14T19:17:06.793Z,7.20
2022-11-14T19:54:44.973Z,7.40
2022-11-14T19:57:25.837Z,7.50
2022-11-14T19:59:55.172Z,7.50
2022-11-14T20:02:31.570Z,7.50
2022-11-14T20:05:02.922Z,7.50
2022-11-14T20:07:35.384Z,7.50
2022-11-14T20:10:04.332Z,7.60
2022-11-14T20:12:38.969Z,7.60
2022-11-14T20:15:10.420Z,7.70
2022-11-14T20:17:46.791Z,7.70
2022-11-14T20:20:20.283Z,7.70
2022-11-14T20:22:52.593Z,7.70
2022-11-14T20:25:35.989Z,7.80
2022-11-14T20:31:03.774Z,7.90
2022-11-14T20:33:40.047Z,7.90
2022-11-14T20:36:15.156Z,7.80
2022-11-14T20:38:48.829Z,7.80
2022-11-14T20:41:22.645Z,7.80
2022-11-14T20:43:52.988Z,7.80
2022-11-14T20:46:23.110Z,7.80
2022-11-14T20:52:32.832Z,7.90
2022-11-14T20:55:11.556Z,7.90
2022-11-14T20:57:40.650Z,7.90
2022-11-14T21:00:12.400Z,7.90
2022-11-14T21:02:41.950Z,8.00
2022-11-14T21:05:12.034Z,8.00
2022-11-14T21:07:41.760Z,8.00
2022-11-14T21:10:31.287Z,8.00
2022-11-14T21:13:30.183Z,8.00
2022-11-14T21:16:05.543Z,8.00
2022-11-14T21:18:35.768Z,8.00
2022-11-14T21:21:14.181Z,8.10
2022-11-14T21:23:49.359Z,8.10
2022-11-14T21:26:28.385Z,8.10
2022-11-14T21:32:07.988Z,8.10
2022-11-14T21:34:47.602Z,8.10
2022-11-14T21:37:24.302Z,8.20
2022-11-14T21:39:58.882Z,8.20
2022-11-14T21:48:41.251Z,8.20
2022-11-14T21:51:50.479Z,8.20
2022-11-14T21:57:26.377Z,8.10
2022-11-14T21:59:56.591Z,8.20
2022-11-14T22:02:45.833Z,8.20
2022-11-14T22:05:15.526Z,8.20
2022-11-14T22:07:43.634Z,8.20
2022-11-14T22:10:12.274Z,8.20
2022-11-14T22:12:40.727Z,8.20
2022-11-14T22:15:10.800Z,8.20
2022-11-14T22:17:39.781Z,8.20
2022-11-14T22:20:10.213Z,8.20
2022-11-14T22:22:40.349Z,8.20
2022-11-14T22:25:09.754Z,8.30
2022-11-14T22:27:38.846Z,8.30
2022-11-14T22:30:08.403Z,8.20
2022-11-14T22:32:37.467Z,8.20
2022-11-14T22:35:09.734Z,8.30
2022-11-14T22:37:40.948Z,8.30
2022-11-14T22:40:12.051Z,8.30
2022-11-14T22:42:40.862Z,8.30
2022-11-14T22:45:11.362Z,8.30
2022-11-14T22:47:40.554Z,8.30
2022-11-14T22:50:11.089Z,8.30
2022-11-14T22:52:40.595Z,8.30
2022-11-14T22:55:13.716Z,8.30
2022-11-14T22:57:44.781Z,8.30
2022-11-14T23:00:15.162Z,8.30
2022-11-14T23:02:43.110Z,8.40
2022-11-14T23:05:11.048Z,8.40
2022-11-14T23:07:40.622Z,8.30
2022-11-14T23:10:09.629Z,8.40
2022-11-14T23:12:37.686Z,8.30
2022-11-14T23:15:06.557Z,8.30
2022-11-14T23:17:34.495Z,8.30
2022-11-14T23:20:02.431Z,8.30
2022-11-14T23:22:30.831Z,8.30
2022-11-14T23:25:00.144Z,8.30
2022-11-14T23:27:28.220Z,8.30
2022-11-14T23:29:56.624Z,8.20
2022-11-14T23:32:24.629Z,8.20
2022-11-14T23:34:52.600Z,8.20
2022-11-14T23:37:20.640Z,8.20
2022-11-14T23:39:48.785Z,8.20
2022-11-14T23:42:18.092Z,8.20
2022-11-14T23:44:46.575Z,8.20
2022-11-14T23:47:15.172Z,8.10
2022-11-14T23:49:43.088Z,8.20
2022-11-14T23:52:11.564Z,8.10
2022-11-14T23:54:39.553Z,8.10
2022-11-14T23:57:07.539Z,8.20
2022-11-14T23:59:36.985Z,8.20
